sensor_id;sensor_type;location;lat;lon;timestamp;P1;durP1;ratioP1;P2;durP2;ratioP2
60257;SDS011;46115;44.484;11.314;2023-06-10T00:04:00;13.85;;;11.90;;
60257;SDS011;46115;44.484;11.314;2023-06-10T00:08:03;14.65;;;12.73;;
60257;SDS011;46115;44.484;11.314;2023-06-10T00:12:08;14.05;;;12.45;;
60257;SDS011;46115;44.484;11.314;2023-06-10T00:16:12;15.63;;;12.63;;
60257;SDS011;46115;44.484;11.314;2023-06-10T00:20:15;13.80;;;12.32;;
60257;SDS011;46115;44.484;11.314;2023-06-10T00:24:17;12.85;;;11.57;;
60257;SDS011;46115;44.484;11.314;2023-06-10T00:28:20;14.00;;;12.48;;
60257;SDS011;46115;44.484;11.314;2023-06-10T00:32:24;12.73;;;11.43;;
60257;SDS011;46115;44.484;11.314;2023-06-10T00:36:27;15.65;;;13.77;;
60257;SDS011;46115;44.484;11.314;2023-06-10T00:40:30;21.90;;;18.77;;
60257;SDS011;46115;44.484;11.314;2023-06-10T00:44:33;25.35;;;20.95;;
60257;SDS011;46115;44.484;11.314;2023-06-10T00:48:37;21.77;;;18.80;;
60257;SDS011;46115;44.484;11.314;2023-06-10T00:52:39;24.23;;;19.90;;
60257;SDS011;46115;44.484;11.314;2023-06-10T00:56:44;23.83;;;19.30;;
60257;SDS011;46115;44.484;11.314;2023-06-10T01:00:46;28.08;;;23.33;;
60257;SDS011;46115;44.484;11.314;2023-06-10T01:04:51;26.50;;;19.83;;
60257;SDS011;46115;44.484;11.314;2023-06-10T01:08:55;26.10;;;22.77;;
60257;SDS011;46115;44.484;11.314;2023-06-10T01:13:02;27.60;;;23.45;;
60257;SDS011;46115;44.484;11.314;2023-06-10T01:17:07;31.92;;;23.52;;
60257;SDS011;46115;44.484;11.314;2023-06-10T01:21:14;25.38;;;22.63;;
60257;SDS011;46115;44.484;11.314;2023-06-10T01:25:20;24.48;;;21.85;;
60257;SDS011;46115;44.484;11.314;2023-06-10T01:29:28;22.92;;;19.80;;
60257;SDS011;46115;44.484;11.314;2023-06-10T01:33:39;25.85;;;23.05;;
60257;SDS011;46115;44.484;11.314;2023-06-10T01:37:46;26.02;;;23.27;;
60257;SDS011;46115;44.484;11.314;2023-06-10T01:41:51;24.20;;;21.55;;
60257;SDS011;46115;44.484;11.314;2023-06-10T01:45:54;21.73;;;17.45;;
60257;SDS011;46115;44.484;11.314;2023-06-10T01:49:57;15.57;;;13.20;;
60257;SDS011;46115;44.484;11.314;2023-06-10T01:54:00;10.52;;;9.23;;
60257;SDS011;46115;44.484;11.314;2023-06-10T01:58:03;9.52;;;8.63;;
60257;SDS011;46115;44.484;11.314;2023-06-10T02:02:06;10.90;;;9.57;;
60257;SDS011;46115;44.484;11.314;2023-06-10T02:06:08;10.68;;;9.57;;
60257;SDS011;46115;44.484;11.314;2023-06-10T02:10:12;14.80;;;12.73;;
60257;SDS011;46115;44.484;11.314;2023-06-10T02:14:14;15.90;;;13.77;;
60257;SDS011;46115;44.484;11.314;2023-06-10T02:18:17;15.32;;;13.43;;
60257;SDS011;46115;44.484;11.314;2023-06-10T02:22:21;17.85;;;14.60;;
60257;SDS011;46115;44.484;11.314;2023-06-10T02:26:26;17.05;;;14.48;;
60257;SDS011;46115;44.484;11.314;2023-06-10T02:30:28;17.05;;;14.70;;
60257;SDS011;46115;44.484;11.314;2023-06-10T02:34:31;14.77;;;12.45;;
60257;SDS011;46115;44.484;11.314;2023-06-10T02:38:35;15.93;;;12.13;;
60257;SDS011;46115;44.484;11.314;2023-06-10T02:42:39;13.68;;;12.23;;
60257;SDS011;46115;44.484;11.314;2023-06-10T02:46:42;14.18;;;12.77;;
60257;SDS011;46115;44.484;11.314;2023-06-10T02:50:45;16.13;;;13.85;;
60257;SDS011;46115;44.484;11.314;2023-06-10T02:55:06;15.45;;;12.98;;
60257;SDS011;46115;44.484;11.314;2023-06-10T02:59:10;15.07;;;12.98;;
60257;SDS011;46115;44.484;11.314;2023-06-10T03:03:13;17.02;;;13.80;;
60257;SDS011;46115;44.484;11.314;2023-06-10T03:07:28;16.73;;;13.68;;
60257;SDS011;46115;44.484;11.314;2023-06-10T03:11:32;14.80;;;12.80;;
60257;SDS011;46115;44.484;11.314;2023-06-10T03:15:37;16.45;;;12.68;;
60257;SDS011;46115;44.484;11.314;2023-06-10T03:19:44;18.98;;;15.20;;
60257;SDS011;46115;44.484;11.314;2023-06-10T03:23:48;17.10;;;14.05;;
60257;SDS011;46115;44.484;11.314;2023-06-10T03:27:51;17.52;;;15.70;;
60257;SDS011;46115;44.484;11.314;2023-06-10T03:31:55;19.77;;;16.08;;
60257;SDS011;46115;44.484;11.314;2023-06-10T03:35:58;22.00;;;16.77;;
60257;SDS011;46115;44.484;11.314;2023-06-10T03:40:02;18.60;;;15.70;;
60257;SDS011;46115;44.484;11.314;2023-06-10T03:44:07;21.40;;;17.52;;
60257;SDS011;46115;44.484;11.314;2023-06-10T03:48:11;21.33;;;18.77;;
60257;SDS011;46115;44.484;11.314;2023-06-10T03:52:21;22.00;;;19.15;;
60257;SDS011;46115;44.484;11.314;2023-06-10T03:56:24;23.88;;;19.95;;
60257;SDS011;46115;44.484;11.314;2023-06-10T04:00:28;25.05;;;20.27;;
60257;SDS011;46115;44.484;11.314;2023-06-10T04:04:32;27.13;;;22.80;;
60257;SDS011;46115;44.484;11.314;2023-06-10T04:08:34;26.02;;;22.30;;
60257;SDS011;46115;44.484;11.314;2023-06-10T04:12:37;29.55;;;25.63;;
60257;SDS011;46115;44.484;11.314;2023-06-10T04:16:39;28.42;;;25.33;;
60257;SDS011;46115;44.484;11.314;2023-06-10T04:20:44;27.83;;;24.27;;
60257;SDS011;46115;44.484;11.314;2023-06-10T04:24:48;34.78;;;28.20;;
60257;SDS011;46115;44.484;11.314;2023-06-10T04:28:52;34.97;;;27.65;;
60257;SDS011;46115;44.484;11.314;2023-06-10T04:32:55;32.35;;;26.15;;
60257;SDS011;46115;44.484;11.314;2023-06-10T04:36:59;30.88;;;25.75;;
60257;SDS011;46115;44.484;11.314;2023-06-10T04:41:03;32.17;;;24.65;;
60257;SDS011;46115;44.484;11.314;2023-06-10T04:45:08;25.25;;;22.15;;
60257;SDS011;46115;44.484;11.314;2023-06-10T04:49:11;23.90;;;21.17;;
60257;SDS011;46115;44.484;11.314;2023-06-10T04:53:17;29.98;;;24.30;;
60257;SDS011;46115;44.484;11.314;2023-06-10T04:57:21;25.95;;;22.23;;
60257;SDS011;46115;44.484;11.314;2023-06-10T05:01:24;27.55;;;23.77;;
60257;SDS011;46115;44.484;11.314;2023-06-10T05:05:26;28.85;;;23.88;;
60257;SDS011;46115;44.484;11.314;2023-06-10T05:09:30;30.63;;;23.98;;
60257;SDS011;46115;44.484;11.314;2023-06-10T05:13:33;26.15;;;20.92;;
60257;SDS011;46115;44.484;11.314;2023-06-10T05:17:36;22.83;;;20.42;;
60257;SDS011;46115;44.484;11.314;2023-06-10T05:21:39;24.13;;;20.92;;
60257;SDS011;46115;44.484;11.314;2023-06-10T05:25:42;21.05;;;18.63;;
60257;SDS011;46115;44.484;11.314;2023-06-10T05:29:45;20.73;;;18.38;;
60257;SDS011;46115;44.484;11.314;2023-06-10T05:33:48;24.10;;;19.92;;
60257;SDS011;46115;44.484;11.314;2023-06-10T05:37:50;25.30;;;21.30;;
60257;SDS011;46115;44.484;11.314;2023-06-10T05:41:54;26.25;;;20.25;;
60257;SDS011;46115;44.484;11.314;2023-06-10T05:45:56;23.95;;;19.73;;
60257;SDS011;46115;44.484;11.314;2023-06-10T05:49:59;26.10;;;19.45;;
60257;SDS011;46115;44.484;11.314;2023-06-10T05:54:01;23.70;;;19.80;;
60257;SDS011;46115;44.484;11.314;2023-06-10T05:58:05;22.65;;;17.77;;
60257;SDS011;46115;44.484;11.314;2023-06-10T06:02:08;19.23;;;16.92;;
60257;SDS011;46115;44.484;11.314;2023-06-10T06:06:10;19.20;;;16.40;;
60257;SDS011;46115;44.484;11.314;2023-06-10T06:10:13;20.30;;;16.65;;
60257;SDS011;46115;44.484;11.314;2023-06-10T06:14:17;22.02;;;16.13;;
60257;SDS011;46115;44.484;11.314;2023-06-10T06:18:19;21.45;;;14.57;;
60257;SDS011;46115;44.484;11.314;2023-06-10T06:22:22;17.88;;;15.93;;
60257;SDS011;46115;44.484;11.314;2023-06-10T06:26:24;17.42;;;14.88;;
60257;SDS011;46115;44.484;11.314;2023-06-10T06:30:29;16.88;;;14.48;;
60257;SDS011;46115;44.484;11.314;2023-06-10T06:34:31;16.25;;;14.52;;
60257;SDS011;46115;44.484;11.314;2023-06-10T06:38:34;15.80;;;14.05;;
60257;SDS011;46115;44.484;11.314;2023-06-10T06:42:37;14.90;;;11.90;;
60257;SDS011;46115;44.484;11.314;2023-06-10T06:47:01;14.52;;;11.65;;
60257;SDS011;46115;44.484;11.314;2023-06-10T06:51:04;17.88;;;12.27;;
60257;SDS011;46115;44.484;11.314;2023-06-10T06:55:06;12.55;;;9.45;;
60257;SDS011;46115;44.484;11.314;2023-06-10T06:59:09;14.00;;;9.85;;
60257;SDS011;46115;44.484;11.314;2023-06-10T07:03:16;11.80;;;9.10;;
60257;SDS011;46115;44.484;11.314;2023-06-10T07:07:18;14.30;;;9.65;;
60257;SDS011;46115;44.484;11.314;2023-06-10T07:11:21;12.57;;;9.95;;
60257;SDS011;46115;44.484;11.314;2023-06-10T07:15:23;19.85;;;10.65;;
60257;SDS011;46115;44.484;11.314;2023-06-10T07:19:27;12.55;;;8.65;;
60257;SDS011;46115;44.484;11.314;2023-06-10T07:23:30;9.43;;;7.15;;
60257;SDS011;46115;44.484;11.314;2023-06-10T07:27:32;8.13;;;6.70;;
60257;SDS011;46115;44.484;11.314;2023-06-10T07:31:36;8.90;;;6.65;;
60257;SDS011;46115;44.484;11.314;2023-06-10T07:35:40;11.93;;;7.07;;
60257;SDS011;46115;44.484;11.314;2023-06-10T07:39:44;10.75;;;7.35;;
60257;SDS011;46115;44.484;11.314;2023-06-10T07:43:46;10.27;;;8.55;;
60257;SDS011;46115;44.484;11.314;2023-06-10T07:47:49;17.90;;;9.20;;
60257;SDS011;46115;44.484;11.314;2023-06-10T07:51:53;11.25;;;8.10;;
60257;SDS011;46115;44.484;11.314;2023-06-10T07:55:55;8.70;;;6.55;;
60257;SDS011;46115;44.484;11.314;2023-06-10T07:59:58;9.43;;;7.03;;
60257;SDS011;46115;44.484;11.314;2023-06-10T08:04:01;11.30;;;7.10;;
60257;SDS011;46115;44.484;11.314;2023-06-10T08:08:05;10.55;;;5.82;;
60257;SDS011;46115;44.484;11.314;2023-06-10T08:12:07;10.35;;;6.15;;
60257;SDS011;46115;44.484;11.314;2023-06-10T08:16:14;8.27;;;5.72;;
60257;SDS011;46115;44.484;11.314;2023-06-10T08:20:17;8.52;;;6.55;;
60257;SDS011;46115;44.484;11.314;2023-06-10T08:24:21;9.68;;;6.82;;
60257;SDS011;46115;44.484;11.314;2023-06-10T08:28:23;9.23;;;6.25;;
60257;SDS011;46115;44.484;11.314;2023-06-10T08:32:26;9.43;;;6.00;;
60257;SDS011;46115;44.484;11.314;2023-06-10T08:36:28;9.05;;;5.35;;
60257;SDS011;46115;44.484;11.314;2023-06-10T08:40:32;7.60;;;5.85;;
60257;SDS011;46115;44.484;11.314;2023-06-10T08:44:35;10.15;;;6.45;;
60257;SDS011;46115;44.484;11.314;2023-06-10T08:48:41;11.77;;;7.05;;
60257;SDS011;46115;44.484;11.314;2023-06-10T08:52:46;9.55;;;7.75;;
60257;SDS011;46115;44.484;11.314;2023-06-10T08:56:53;10.55;;;9.00;;
60257;SDS011;46115;44.484;11.314;2023-06-10T09:00:59;12.88;;;9.60;;
60257;SDS011;46115;44.484;11.314;2023-06-10T09:05:02;10.57;;;8.23;;
60257;SDS011;46115;44.484;11.314;2023-06-10T09:09:05;11.48;;;10.13;;
60257;SDS011;46115;44.484;11.314;2023-06-10T09:13:09;11.57;;;9.10;;
60257;SDS011;46115;44.484;11.314;2023-06-10T09:17:12;12.60;;;11.30;;
60257;SDS011;46115;44.484;11.314;2023-06-10T09:21:14;15.15;;;12.55;;
60257;SDS011;46115;44.484;11.314;2023-06-10T09:25:19;14.35;;;12.40;;
60257;SDS011;46115;44.484;11.314;2023-06-10T09:29:25;15.63;;;11.85;;
60257;SDS011;46115;44.484;11.314;2023-06-10T09:33:27;15.63;;;11.57;;
60257;SDS011;46115;44.484;11.314;2023-06-10T09:37:30;14.50;;;12.70;;
60257;SDS011;46115;44.484;11.314;2023-06-10T09:41:32;14.50;;;12.73;;
60257;SDS011;46115;44.484;11.314;2023-06-10T09:45:37;14.23;;;12.30;;
60257;SDS011;46115;44.484;11.314;2023-06-10T09:49:39;16.42;;;13.45;;
60257;SDS011;46115;44.484;11.314;2023-06-10T09:53:42;14.10;;;12.48;;
60257;SDS011;46115;44.484;11.314;2023-06-10T09:57:44;13.95;;;12.48;;
60257;SDS011;46115;44.484;11.314;2023-06-10T10:01:55;14.60;;;13.10;;
60257;SDS011;46115;44.484;11.314;2023-06-10T10:05:58;14.25;;;12.75;;
60257;SDS011;46115;44.484;11.314;2023-06-10T10:10:01;13.88;;;12.48;;
60257;SDS011;46115;44.484;11.314;2023-06-10T10:14:04;13.55;;;12.15;;
60257;SDS011;46115;44.484;11.314;2023-06-10T10:18:09;16.30;;;11.70;;
60257;SDS011;46115;44.484;11.314;2023-06-10T10:22:15;12.63;;;9.68;;
60257;SDS011;46115;44.484;11.314;2023-06-10T10:26:28;13.13;;;8.10;;
60257;SDS011;46115;44.484;11.314;2023-06-10T10:30:34;10.18;;;8.15;;
60257;SDS011;46115;44.484;11.314;2023-06-10T10:34:43;10.93;;;9.00;;
60257;SDS011;46115;44.484;11.314;2023-06-10T10:42:55;8.85;;;7.43;;
60257;SDS011;46115;44.484;11.314;2023-06-10T10:46:59;8.70;;;7.05;;
60257;SDS011;46115;44.484;11.314;2023-06-10T10:51:06;10.05;;;5.97;;
60257;SDS011;46115;44.484;11.314;2023-06-10T10:55:12;8.50;;;5.80;;
60257;SDS011;46115;44.484;11.314;2023-06-10T10:59:15;11.90;;;7.85;;
60257;SDS011;46115;44.484;11.314;2023-06-10T11:03:20;8.95;;;7.32;;
60257;SDS011;46115;44.484;11.314;2023-06-10T11:07:25;10.02;;;7.13;;
60257;SDS011;46115;44.484;11.314;2023-06-10T11:11:27;11.20;;;8.75;;
60257;SDS011;46115;44.484;11.314;2023-06-10T11:15:31;8.23;;;7.18;;
60257;SDS011;46115;44.484;11.314;2023-06-10T11:19:34;9.50;;;8.05;;
60257;SDS011;46115;44.484;11.314;2023-06-10T11:23:40;10.48;;;7.70;;
60257;SDS011;46115;44.484;11.314;2023-06-10T11:27:44;11.50;;;7.65;;
60257;SDS011;46115;44.484;11.314;2023-06-10T11:31:54;8.98;;;6.53;;
60257;SDS011;46115;44.484;11.314;2023-06-10T11:35:56;9.13;;;6.50;;
60257;SDS011;46115;44.484;11.314;2023-06-10T11:40:00;10.18;;;6.00;;
60257;SDS011;46115;44.484;11.314;2023-06-10T11:44:09;8.18;;;7.28;;
60257;SDS011;46115;44.484;11.314;2023-06-10T11:48:12;22.15;;;15.80;;
60257;SDS011;46115;44.484;11.314;2023-06-10T11:52:15;9.88;;;6.85;;
60257;SDS011;46115;44.484;11.314;2023-06-10T11:56:20;11.13;;;8.25;;
60257;SDS011;46115;44.484;11.314;2023-06-10T12:00:23;10.40;;;7.22;;
60257;SDS011;46115;44.484;11.314;2023-06-10T12:04:26;8.07;;;7.00;;
60257;SDS011;46115;44.484;11.314;2023-06-10T12:08:29;9.48;;;7.25;;
60257;SDS011;46115;44.484;11.314;2023-06-10T12:12:35;8.10;;;5.65;;
60257;SDS011;46115;44.484;11.314;2023-06-10T12:16:38;8.48;;;5.15;;
60257;SDS011;46115;44.484;11.314;2023-06-10T12:20:41;7.63;;;4.90;;
60257;SDS011;46115;44.484;11.314;2023-06-10T12:24:44;6.22;;;4.63;;
60257;SDS011;46115;44.484;11.314;2023-06-10T12:28:51;8.43;;;4.55;;
60257;SDS011;46115;44.484;11.314;2023-06-10T12:32:54;6.68;;;4.47;;
60257;SDS011;46115;44.484;11.314;2023-06-10T12:36:58;5.47;;;4.10;;
60257;SDS011;46115;44.484;11.314;2023-06-10T12:41:01;6.90;;;4.38;;
60257;SDS011;46115;44.484;11.314;2023-06-10T12:45:06;8.30;;;4.13;;
60257;SDS011;46115;44.484;11.314;2023-06-10T12:49:18;6.00;;;4.40;;
60257;SDS011;46115;44.484;11.314;2023-06-10T12:53:21;4.90;;;3.93;;
60257;SDS011;46115;44.484;11.314;2023-06-10T12:57:25;9.63;;;4.18;;
60257;SDS011;46115;44.484;11.314;2023-06-10T13:01:29;8.07;;;4.65;;
60257;SDS011;46115;44.484;11.314;2023-06-10T13:05:32;7.65;;;5.10;;
60257;SDS011;46115;44.484;11.314;2023-06-10T13:09:34;10.10;;;5.43;;
60257;SDS011;46115;44.484;11.314;2023-06-10T13:13:37;10.50;;;6.70;;
60257;SDS011;46115;44.484;11.314;2023-06-10T13:17:41;9.43;;;6.47;;
60257;SDS011;46115;44.484;11.314;2023-06-10T13:21:44;11.23;;;7.82;;
60257;SDS011;46115;44.484;11.314;2023-06-10T13:25:47;9.52;;;6.78;;
60257;SDS011;46115;44.484;11.314;2023-06-10T13:29:49;18.33;;;6.85;;
60257;SDS011;46115;44.484;11.314;2023-06-10T13:33:53;12.18;;;7.22;;
60257;SDS011;46115;44.484;11.314;2023-06-10T13:37:56;13.38;;;7.68;;
60257;SDS011;46115;44.484;11.314;2023-06-10T13:41:58;9.63;;;7.53;;
60257;SDS011;46115;44.484;11.314;2023-06-10T13:46:01;9.88;;;7.38;;
60257;SDS011;46115;44.484;11.314;2023-06-10T13:50:05;12.23;;;7.72;;
60257;SDS011;46115;44.484;11.314;2023-06-10T13:54:09;10.63;;;7.22;;
60257;SDS011;46115;44.484;11.314;2023-06-10T13:58:11;10.65;;;7.30;;
60257;SDS011;46115;44.484;11.314;2023-06-10T14:02:14;9.27;;;7.18;;
60257;SDS011;46115;44.484;11.314;2023-06-10T14:06:17;8.75;;;5.82;;
60257;SDS011;46115;44.484;11.314;2023-06-10T14:10:20;5.60;;;4.00;;
60257;SDS011;46115;44.484;11.314;2023-06-10T14:14:23;5.80;;;3.17;;
60257;SDS011;46115;44.484;11.314;2023-06-10T14:18:26;6.45;;;3.58;;
60257;SDS011;46115;44.484;11.314;2023-06-10T14:22:29;6.55;;;3.17;;
60257;SDS011;46115;44.484;11.314;2023-06-10T14:26:32;4.55;;;3.20;;
60257;SDS011;46115;44.484;11.314;2023-06-10T14:30:34;5.18;;;2.88;;
60257;SDS011;46115;44.484;11.314;2023-06-10T14:34:37;5.75;;;2.90;;
60257;SDS011;46115;44.484;11.314;2023-06-10T14:38:41;6.88;;;3.20;;
60257;SDS011;46115;44.484;11.314;2023-06-10T14:42:44;6.15;;;3.92;;
60257;SDS011;46115;44.484;11.314;2023-06-10T14:46:46;6.25;;;3.63;;
60257;SDS011;46115;44.484;11.314;2023-06-10T14:50:48;3.83;;;3.00;;
60257;SDS011;46115;44.484;11.314;2023-06-10T14:54:53;3.40;;;2.80;;
60257;SDS011;46115;44.484;11.314;2023-06-10T14:58:55;5.50;;;2.80;;
60257;SDS011;46115;44.484;11.314;2023-06-10T15:02:58;4.78;;;2.95;;
60257;SDS011;46115;44.484;11.314;2023-06-10T15:07:00;4.38;;;3.03;;
60257;SDS011;46115;44.484;11.314;2023-06-10T15:11:04;5.05;;;2.90;;
60257;SDS011;46115;44.484;11.314;2023-06-10T15:15:07;5.32;;;2.92;;
60257;SDS011;46115;44.484;11.314;2023-06-10T15:19:10;6.32;;;3.10;;
60257;SDS011;46115;44.484;11.314;2023-06-10T15:23:12;5.07;;;3.28;;
60257;SDS011;46115;44.484;11.314;2023-06-10T15:27:16;7.82;;;3.63;;
60257;SDS011;46115;44.484;11.314;2023-06-10T15:31:19;6.32;;;3.15;;
60257;SDS011;46115;44.484;11.314;2023-06-10T15:35:22;4.05;;;3.28;;
60257;SDS011;46115;44.484;11.314;2023-06-10T15:39:24;5.68;;;3.30;;
60257;SDS011;46115;44.484;11.314;2023-06-10T15:43:29;5.65;;;3.45;;
60257;SDS011;46115;44.484;11.314;2023-06-10T15:47:31;5.18;;;3.40;;
60257;SDS011;46115;44.484;11.314;2023-06-10T15:51:34;4.30;;;3.53;;
60257;SDS011;46115;44.484;11.314;2023-06-10T15:55:36;4.82;;;3.33;;
60257;SDS011;46115;44.484;11.314;2023-06-10T15:59:40;7.88;;;3.47;;
60257;SDS011;46115;44.484;11.314;2023-06-10T16:03:43;6.85;;;3.22;;
60257;SDS011;46115;44.484;11.314;2023-06-10T16:07:46;4.22;;;3.40;;
60257;SDS011;46115;44.484;11.314;2023-06-10T16:11:48;4.93;;;3.80;;
60257;SDS011;46115;44.484;11.314;2023-06-10T16:15:52;5.25;;;3.45;;
60257;SDS011;46115;44.484;11.314;2023-06-10T16:19:55;8.05;;;3.15;;
60257;SDS011;46115;44.484;11.314;2023-06-10T16:23:57;5.43;;;3.30;;
60257;SDS011;46115;44.484;11.314;2023-06-10T16:28:00;5.10;;;3.28;;
60257;SDS011;46115;44.484;11.314;2023-06-10T16:32:05;3.92;;;3.15;;
60257;SDS011;46115;44.484;11.314;2023-06-10T16:36:09;7.57;;;3.40;;
60257;SDS011;46115;44.484;11.314;2023-06-10T16:40:11;4.32;;;3.15;;
60257;SDS011;46115;44.484;11.314;2023-06-10T16:44:14;4.05;;;3.25;;
60257;SDS011;46115;44.484;11.314;2023-06-10T16:48:19;7.75;;;3.30;;
60257;SDS011;46115;44.484;11.314;2023-06-10T16:52:21;5.05;;;3.30;;
60257;SDS011;46115;44.484;11.314;2023-06-10T16:56:24;6.95;;;3.22;;
60257;SDS011;46115;44.484;11.314;2023-06-10T17:00:26;5.13;;;3.20;;
60257;SDS011;46115;44.484;11.314;2023-06-10T17:04:30;5.95;;;3.13;;
60257;SDS011;46115;44.484;11.314;2023-06-10T17:08:32;4.50;;;3.28;;
60257;SDS011;46115;44.484;11.314;2023-06-10T17:12:35;5.68;;;3.10;;
60257;SDS011;46115;44.484;11.314;2023-06-10T17:16:37;7.50;;;3.40;;
60257;SDS011;46115;44.484;11.314;2023-06-10T17:20:42;5.13;;;3.50;;
60257;SDS011;46115;44.484;11.314;2023-06-10T17:24:44;6.57;;;3.08;;
60257;SDS011;46115;44.484;11.314;2023-06-10T17:28:47;6.43;;;3.55;;
60257;SDS011;46115;44.484;11.314;2023-06-10T17:32:49;7.10;;;3.47;;
60257;SDS011;46115;44.484;11.314;2023-06-10T17:36:53;5.35;;;3.40;;
60257;SDS011;46115;44.484;11.314;2023-06-10T17:40:55;4.10;;;3.08;;
60257;SDS011;46115;44.484;11.314;2023-06-10T17:44:58;6.82;;;3.10;;
60257;SDS011;46115;44.484;11.314;2023-06-10T17:49:00;5.68;;;3.55;;
60257;SDS011;46115;44.484;11.314;2023-06-10T17:53:04;5.68;;;3.72;;
60257;SDS011;46115;44.484;11.314;2023-06-10T17:57:07;4.65;;;3.50;;
60257;SDS011;46115;44.484;11.314;2023-06-10T18:01:09;5.68;;;3.75;;
60257;SDS011;46115;44.484;11.314;2023-06-10T18:05:12;7.50;;;3.72;;
60257;SDS011;46115;44.484;11.314;2023-06-10T18:09:16;7.32;;;3.80;;
60257;SDS011;46115;44.484;11.314;2023-06-10T18:13:18;4.72;;;3.83;;
60257;SDS011;46115;44.484;11.314;2023-06-10T18:17:21;6.78;;;4.32;;
60257;SDS011;46115;44.484;11.314;2023-06-10T18:21:23;8.13;;;4.32;;
60257;SDS011;46115;44.484;11.314;2023-06-10T18:25:27;7.45;;;4.80;;
60257;SDS011;46115;44.484;11.314;2023-06-10T18:29:30;6.00;;;4.32;;
60257;SDS011;46115;44.484;11.314;2023-06-10T18:33:32;6.13;;;4.72;;
60257;SDS011;46115;44.484;11.314;2023-06-10T18:37:35;6.10;;;4.55;;
60257;SDS011;46115;44.484;11.314;2023-06-10T18:41:39;8.38;;;4.40;;
60257;SDS011;46115;44.484;11.314;2023-06-10T18:45:41;12.55;;;4.90;;
60257;SDS011;46115;44.484;11.314;2023-06-10T18:49:44;8.18;;;4.85;;
60257;SDS011;46115;44.484;11.314;2023-06-10T18:53:47;11.30;;;4.90;;
60257;SDS011;46115;44.484;11.314;2023-06-10T18:57:51;7.10;;;4.53;;
60257;SDS011;46115;44.484;11.314;2023-06-10T19:01:53;10.32;;;4.88;;
60257;SDS011;46115;44.484;11.314;2023-06-10T19:05:56;8.82;;;4.45;;
60257;SDS011;46115;44.484;11.314;2023-06-10T19:10:00;10.63;;;4.88;;
60257;SDS011;46115;44.484;11.314;2023-06-10T19:14:04;10.63;;;5.20;;
60257;SDS011;46115;44.484;11.314;2023-06-10T19:18:07;12.15;;;5.03;;
60257;SDS011;46115;44.484;11.314;2023-06-10T19:22:10;11.40;;;5.35;;
60257;SDS011;46115;44.484;11.314;2023-06-10T19:26:12;8.18;;;5.13;;
60257;SDS011;46115;44.484;11.314;2023-06-10T19:30:16;7.53;;;5.15;;
60257;SDS011;46115;44.484;11.314;2023-06-10T19:34:19;13.73;;;5.30;;
60257;SDS011;46115;44.484;11.314;2023-06-10T19:38:22;8.13;;;4.60;;
60257;SDS011;46115;44.484;11.314;2023-06-10T19:42:24;8.70;;;4.90;;
60257;SDS011;46115;44.484;11.314;2023-06-10T19:46:28;8.48;;;5.07;;
60257;SDS011;46115;44.484;11.314;2023-06-10T19:50:31;10.98;;;4.80;;
60257;SDS011;46115;44.484;11.314;2023-06-10T22:06:08;10.68;;;4.18;;
60257;SDS011;46115;44.484;11.314;2023-06-10T22:10:11;11.73;;;4.45;;
60257;SDS011;46115;44.484;11.314;2023-06-10T22:14:13;12.02;;;4.60;;
60257;SDS011;46115;44.484;11.314;2023-06-10T22:18:16;10.98;;;4.30;;
60257;SDS011;46115;44.484;11.314;2023-06-10T22:22:20;8.05;;;3.83;;
60257;SDS011;46115;44.484;11.314;2023-06-10T22:26:23;5.97;;;4.20;;
60257;SDS011;46115;44.484;11.314;2023-06-10T22:30:26;8.43;;;4.22;;
60257;SDS011;46115;44.484;11.314;2023-06-10T22:34:29;8.68;;;3.95;;
60257;SDS011;46115;44.484;11.314;2023-06-10T22:38:32;7.43;;;3.75;;
60257;SDS011;46115;44.484;11.314;2023-06-10T22:42:34;9.30;;;4.10;;
60257;SDS011;46115;44.484;11.314;2023-06-10T22:46:37;8.70;;;3.90;;
60257;SDS011;46115;44.484;11.314;2023-06-10T22:50:39;10.43;;;4.03;;
60257;SDS011;46115;44.484;11.314;2023-06-10T22:54:43;12.48;;;4.40;;
60257;SDS011;46115;44.484;11.314;2023-06-10T22:58:46;17.40;;;5.00;;
60257;SDS011;46115;44.484;11.314;2023-06-10T23:02:48;11.70;;;4.35;;
60257;SDS011;46115;44.484;11.314;2023-06-10T23:06:51;7.60;;;5.78;;
60257;SDS011;46115;44.484;11.314;2023-06-10T23:10:55;13.95;;;5.90;;
60257;SDS011;46115;44.484;11.314;2023-06-10T23:14:57;7.32;;;5.72;;
60257;SDS011;46115;44.484;11.314;2023-06-10T23:19:00;10.88;;;6.07;;
60257;SDS011;46115;44.484;11.314;2023-06-10T23:23:03;10.98;;;6.57;;
60257;SDS011;46115;44.484;11.314;2023-06-10T23:27:09;13.63;;;6.60;;
60257;SDS011;46115;44.484;11.314;2023-06-10T23:31:14;13.32;;;6.80;;
60257;SDS011;46115;44.484;11.314;2023-06-10T23:35:16;11.43;;;5.78;;
60257;SDS011;46115;44.484;11.314;2023-06-10T23:39:20;10.13;;;5.32;;
60257;SDS011;46115;44.484;11.314;2023-06-10T23:43:24;9.57;;;5.38;;
60257;SDS011;46115;44.484;11.314;2023-06-10T23:47:26;12.25;;;6.57;;
60257;SDS011;46115;44.484;11.314;2023-06-10T23:51:29;10.95;;;6.97;;
60257;SDS011;46115;44.484;11.314;2023-06-10T23:55:32;13.77;;;6.82;;
60257;SDS011;46115;44.484;11.314;2023-06-10T23:59:37;12.82;;;7.75;;
